Aviation Digital Data Service (ADDS)

Output produced by TAFs form (1532 UTC 17 September 2014)
found at http://www.aviationweather.gov/adds/tafs/
 
KALB 171158Z 1712/1812 VRB03KT P6SM SCT060 
     FM171400 24005KT P6SM FEW025 SCT050 
     FM171600 27007KT P6SM FEW060 
     FM172300 VRB03KT P6SM SKC 
     FM181000 00000KT P6SM BKN200